sensor_id;sensor_type;location;lat;lon;timestamp;P1;durP1;ratioP1;P2;durP2;ratioP2
76582;SDS011;65462;52.148;7.940;2023-06-24T00:02:10;5.95;;;4.25;;
76582;SDS011;65462;52.148;7.940;2023-06-24T00:04:36;7.40;;;3.97;;
76582;SDS011;65462;52.148;7.940;2023-06-24T00:07:01;7.85;;;4.22;;
76582;SDS011;65462;52.148;7.940;2023-06-24T00:09:27;5.43;;;3.90;;
76582;SDS011;65462;52.148;7.940;2023-06-24T00:11:57;5.78;;;4.60;;
76582;SDS011;65462;52.148;7.940;2023-06-24T00:14:26;4.80;;;3.38;;
76582;SDS011;65462;52.148;7.940;2023-06-24T00:16:52;4.60;;;3.50;;
76582;SDS011;65462;52.148;7.940;2023-06-24T00:19:21;4.75;;;3.58;;
76582;SDS011;65462;52.148;7.940;2023-06-24T00:21:48;5.47;;;3.83;;
76582;SDS011;65462;52.148;7.940;2023-06-24T00:24:16;5.40;;;3.70;;
76582;SDS011;65462;52.148;7.940;2023-06-24T00:26:42;4.65;;;3.63;;
76582;SDS011;65462;52.148;7.940;2023-06-24T00:29:07;6.00;;;3.42;;
76582;SDS011;65462;52.148;7.940;2023-06-24T00:31:33;7.13;;;3.75;;
76582;SDS011;65462;52.148;7.940;2023-06-24T00:33:58;9.93;;;6.47;;
76582;SDS011;65462;52.148;7.940;2023-06-24T00:36:23;6.63;;;4.65;;
76582;SDS011;65462;52.148;7.940;2023-06-24T00:38:49;4.30;;;3.65;;
76582;SDS011;65462;52.148;7.940;2023-06-24T00:41:14;4.80;;;3.83;;
76582;SDS011;65462;52.148;7.940;2023-06-24T00:43:41;5.32;;;3.58;;
76582;SDS011;65462;52.148;7.940;2023-06-24T00:46:07;6.38;;;3.65;;
76582;SDS011;65462;52.148;7.940;2023-06-24T00:48:32;4.78;;;3.63;;
76582;SDS011;65462;52.148;7.940;2023-06-24T00:50:57;4.72;;;3.05;;
76582;SDS011;65462;52.148;7.940;2023-06-24T00:53:23;4.10;;;3.15;;
76582;SDS011;65462;52.148;7.940;2023-06-24T00:55:50;5.03;;;3.58;;
76582;SDS011;65462;52.148;7.940;2023-06-24T00:58:16;5.18;;;3.13;;
76582;SDS011;65462;52.148;7.940;2023-06-24T01:00:44;5.57;;;3.58;;
76582;SDS011;65462;52.148;7.940;2023-06-24T01:03:11;3.40;;;2.75;;
76582;SDS011;65462;52.148;7.940;2023-06-24T01:05:38;3.95;;;3.00;;
76582;SDS011;65462;52.148;7.940;2023-06-24T01:08:05;6.28;;;3.05;;
76582;SDS011;65462;52.148;7.940;2023-06-24T01:10:31;3.72;;;3.03;;
76582;SDS011;65462;52.148;7.940;2023-06-24T01:12:56;4.03;;;3.20;;
76582;SDS011;65462;52.148;7.940;2023-06-24T01:15:21;3.75;;;3.03;;
76582;SDS011;65462;52.148;7.940;2023-06-24T01:18:35;4.28;;;2.65;;
76582;SDS011;65462;52.148;7.940;2023-06-24T01:20:45;4.10;;;2.55;;
76582;SDS011;65462;52.148;7.940;2023-06-24T01:23:38;3.15;;;2.50;;
76582;SDS011;65462;52.148;7.940;2023-06-24T01:26:31;3.47;;;2.60;;
76582;SDS011;65462;52.148;7.940;2023-06-24T01:29:09;4.20;;;2.95;;
76582;SDS011;65462;52.148;7.940;2023-06-24T01:31:59;3.60;;;2.67;;
76582;SDS011;65462;52.148;7.940;2023-06-24T01:34:36;5.60;;;2.80;;
76582;SDS011;65462;52.148;7.940;2023-06-24T01:37:14;3.92;;;2.75;;
76582;SDS011;65462;52.148;7.940;2023-06-24T01:39:48;4.15;;;2.65;;
76582;SDS011;65462;52.148;7.940;2023-06-24T01:44:45;3.45;;;2.60;;
76582;SDS011;65462;52.148;7.940;2023-06-24T01:47:13;4.15;;;2.42;;
76582;SDS011;65462;52.148;7.940;2023-06-24T01:49:43;3.83;;;2.50;;
76582;SDS011;65462;52.148;7.940;2023-06-24T01:52:09;5.63;;;2.85;;
76582;SDS011;65462;52.148;7.940;2023-06-24T01:54:35;3.88;;;2.80;;
76582;SDS011;65462;52.148;7.940;2023-06-24T01:57:03;3.10;;;2.50;;
76582;SDS011;65462;52.148;7.940;2023-06-24T01:59:32;3.60;;;2.63;;
76582;SDS011;65462;52.148;7.940;2023-06-24T02:01:58;3.97;;;2.88;;
76582;SDS011;65462;52.148;7.940;2023-06-24T02:04:25;4.55;;;2.70;;
76582;SDS011;65462;52.148;7.940;2023-06-24T02:06:55;5.25;;;3.00;;
76582;SDS011;65462;52.148;7.940;2023-06-24T02:09:29;4.47;;;2.20;;
76582;SDS011;65462;52.148;7.940;2023-06-24T02:11:56;4.38;;;2.58;;
76582;SDS011;65462;52.148;7.940;2023-06-24T02:14:23;6.30;;;2.88;;
76582;SDS011;65462;52.148;7.940;2023-06-24T02:16:51;3.65;;;2.75;;
76582;SDS011;65462;52.148;7.940;2023-06-24T02:19:21;3.40;;;2.80;;
76582;SDS011;65462;52.148;7.940;2023-06-24T02:21:47;6.57;;;2.67;;
76582;SDS011;65462;52.148;7.940;2023-06-24T02:24:16;4.78;;;2.75;;
76582;SDS011;65462;52.148;7.940;2023-06-24T02:26:43;4.05;;;2.75;;
76582;SDS011;65462;52.148;7.940;2023-06-24T02:29:09;4.18;;;2.80;;
76582;SDS011;65462;52.148;7.940;2023-06-24T02:31:36;4.93;;;2.50;;
76582;SDS011;65462;52.148;7.940;2023-06-24T02:34:01;5.35;;;2.90;;
76582;SDS011;65462;52.148;7.940;2023-06-24T02:36:26;3.90;;;2.70;;
76582;SDS011;65462;52.148;7.940;2023-06-24T02:38:52;8.07;;;3.03;;
76582;SDS011;65462;52.148;7.940;2023-06-24T02:41:17;4.40;;;2.60;;
76582;SDS011;65462;52.148;7.940;2023-06-24T02:43:42;5.15;;;2.78;;
76582;SDS011;65462;52.148;7.940;2023-06-24T02:46:07;4.93;;;2.67;;
76582;SDS011;65462;52.148;7.940;2023-06-24T02:48:35;5.25;;;2.53;;
76582;SDS011;65462;52.148;7.940;2023-06-24T02:51:02;4.05;;;3.10;;
76582;SDS011;65462;52.148;7.940;2023-06-24T02:53:29;7.40;;;2.80;;
76582;SDS011;65462;52.148;7.940;2023-06-24T02:55:55;2.55;;;2.20;;
76582;SDS011;65462;52.148;7.940;2023-06-24T02:58:22;4.07;;;2.80;;
76582;SDS011;65462;52.148;7.940;2023-06-24T03:00:49;5.25;;;2.72;;
76582;SDS011;65462;52.148;7.940;2023-06-24T03:03:14;3.80;;;2.92;;
76582;SDS011;65462;52.148;7.940;2023-06-24T03:05:40;3.65;;;3.00;;
76582;SDS011;65462;52.148;7.940;2023-06-24T03:08:09;4.80;;;3.10;;
76582;SDS011;65462;52.148;7.940;2023-06-24T03:10:36;3.38;;;3.03;;
76582;SDS011;65462;52.148;7.940;2023-06-24T03:13:02;3.92;;;3.20;;
76582;SDS011;65462;52.148;7.940;2023-06-24T03:15:27;5.57;;;3.50;;
76582;SDS011;65462;52.148;7.940;2023-06-24T03:17:53;4.82;;;3.10;;
76582;SDS011;65462;52.148;7.940;2023-06-24T03:20:19;4.47;;;3.30;;
76582;SDS011;65462;52.148;7.940;2023-06-24T03:22:45;7.75;;;3.08;;
76582;SDS011;65462;52.148;7.940;2023-06-24T03:25:10;4.50;;;3.30;;
76582;SDS011;65462;52.148;7.940;2023-06-24T03:27:35;9.93;;;3.60;;
76582;SDS011;65462;52.148;7.940;2023-06-24T03:30:01;4.57;;;3.33;;
76582;SDS011;65462;52.148;7.940;2023-06-24T03:32:27;6.18;;;3.20;;
76582;SDS011;65462;52.148;7.940;2023-06-24T03:34:52;3.65;;;3.22;;
76582;SDS011;65462;52.148;7.940;2023-06-24T03:37:18;4.18;;;3.22;;
76582;SDS011;65462;52.148;7.940;2023-06-24T03:39:43;7.93;;;3.70;;
76582;SDS011;65462;52.148;7.940;2023-06-24T03:42:08;5.50;;;2.97;;
76582;SDS011;65462;52.148;7.940;2023-06-24T03:44:34;5.72;;;3.40;;
76582;SDS011;65462;52.148;7.940;2023-06-24T03:46:59;4.38;;;2.90;;
76582;SDS011;65462;52.148;7.940;2023-06-24T03:49:24;5.00;;;3.45;;
76582;SDS011;65462;52.148;7.940;2023-06-24T03:51:49;4.47;;;3.22;;
76582;SDS011;65462;52.148;7.940;2023-06-24T03:54:15;5.60;;;3.67;;
76582;SDS011;65462;52.148;7.940;2023-06-24T03:56:40;4.72;;;3.53;;
76582;SDS011;65462;52.148;7.940;2023-06-24T03:59:05;5.03;;;3.22;;
76582;SDS011;65462;52.148;7.940;2023-06-24T04:01:31;4.47;;;3.40;;
76582;SDS011;65462;52.148;7.940;2023-06-24T04:03:57;4.85;;;3.72;;
76582;SDS011;65462;52.148;7.940;2023-06-24T04:06:23;7.22;;;3.38;;
76582;SDS011;65462;52.148;7.940;2023-06-24T04:08:48;4.63;;;3.47;;
76582;SDS011;65462;52.148;7.940;2023-06-24T04:11:13;4.10;;;3.20;;
76582;SDS011;65462;52.148;7.940;2023-06-24T04:13:39;4.50;;;3.53;;
76582;SDS011;65462;52.148;7.940;2023-06-24T04:16:04;4.40;;;3.25;;
76582;SDS011;65462;52.148;7.940;2023-06-24T04:18:30;6.38;;;3.63;;
76582;SDS011;65462;52.148;7.940;2023-06-24T04:20:55;5.50;;;3.25;;
76582;SDS011;65462;52.148;7.940;2023-06-24T04:23:21;8.02;;;3.70;;
76582;SDS011;65462;52.148;7.940;2023-06-24T04:25:46;4.72;;;3.15;;
76582;SDS011;65462;52.148;7.940;2023-06-24T04:28:11;4.35;;;3.42;;
76582;SDS011;65462;52.148;7.940;2023-06-24T04:30:37;5.85;;;3.65;;
76582;SDS011;65462;52.148;7.940;2023-06-24T04:33:05;5.10;;;3.08;;
76582;SDS011;65462;52.148;7.940;2023-06-24T04:35:31;5.85;;;3.20;;
76582;SDS011;65462;52.148;7.940;2023-06-24T04:37:56;5.85;;;3.55;;
76582;SDS011;65462;52.148;7.940;2023-06-24T04:40:22;7.30;;;3.50;;
76582;SDS011;65462;52.148;7.940;2023-06-24T04:42:47;6.10;;;3.50;;
76582;SDS011;65462;52.148;7.940;2023-06-24T04:45:13;5.97;;;3.88;;
76582;SDS011;65462;52.148;7.940;2023-06-24T04:47:38;4.78;;;3.50;;
76582;SDS011;65462;52.148;7.940;2023-06-24T04:50:04;4.72;;;3.25;;
76582;SDS011;65462;52.148;7.940;2023-06-24T04:52:30;4.20;;;3.17;;
76582;SDS011;65462;52.148;7.940;2023-06-24T04:54:55;4.68;;;3.58;;
76582;SDS011;65462;52.148;7.940;2023-06-24T04:57:27;4.15;;;3.50;;
76582;SDS011;65462;52.148;7.940;2023-06-24T04:59:54;6.70;;;3.87;;
76582;SDS011;65462;52.148;7.940;2023-06-24T05:02:20;7.68;;;3.55;;
76582;SDS011;65462;52.148;7.940;2023-06-24T05:04:45;4.55;;;3.88;;
76582;SDS011;65462;52.148;7.940;2023-06-24T05:07:10;5.35;;;3.78;;
76582;SDS011;65462;52.148;7.940;2023-06-24T05:09:36;4.40;;;3.45;;
76582;SDS011;65462;52.148;7.940;2023-06-24T05:12:03;5.60;;;3.58;;
76582;SDS011;65462;52.148;7.940;2023-06-24T05:14:29;4.63;;;3.47;;
76582;SDS011;65462;52.148;7.940;2023-06-24T05:16:54;4.68;;;3.40;;
76582;SDS011;65462;52.148;7.940;2023-06-24T05:19:19;4.07;;;3.25;;
76582;SDS011;65462;52.148;7.940;2023-06-24T05:21:45;6.75;;;3.92;;
76582;SDS011;65462;52.148;7.940;2023-06-24T05:24:10;3.92;;;3.22;;
76582;SDS011;65462;52.148;7.940;2023-06-24T05:26:35;5.30;;;3.90;;
76582;SDS011;65462;52.148;7.940;2023-06-24T05:29:00;5.38;;;3.85;;
76582;SDS011;65462;52.148;7.940;2023-06-24T05:31:26;5.45;;;3.35;;
76582;SDS011;65462;52.148;7.940;2023-06-24T05:33:51;5.35;;;3.40;;
76582;SDS011;65462;52.148;7.940;2023-06-24T05:36:16;5.70;;;3.80;;
76582;SDS011;65462;52.148;7.940;2023-06-24T05:38:42;5.75;;;4.32;;
76582;SDS011;65462;52.148;7.940;2023-06-24T05:41:07;5.03;;;3.90;;
76582;SDS011;65462;52.148;7.940;2023-06-24T05:43:32;4.88;;;4.07;;
76582;SDS011;65462;52.148;7.940;2023-06-24T05:45:57;6.10;;;4.40;;
76582;SDS011;65462;52.148;7.940;2023-06-24T05:48:23;6.80;;;4.68;;
76582;SDS011;65462;52.148;7.940;2023-06-24T05:50:48;6.22;;;4.20;;
76582;SDS011;65462;52.148;7.940;2023-06-24T05:53:13;5.55;;;4.45;;
76582;SDS011;65462;52.148;7.940;2023-06-24T05:55:38;5.50;;;4.38;;
76582;SDS011;65462;52.148;7.940;2023-06-24T05:58:04;5.18;;;4.10;;
76582;SDS011;65462;52.148;7.940;2023-06-24T06:00:29;5.05;;;4.50;;
76582;SDS011;65462;52.148;7.940;2023-06-24T06:02:54;7.68;;;4.82;;
76582;SDS011;65462;52.148;7.940;2023-06-24T06:05:19;4.55;;;3.88;;
76582;SDS011;65462;52.148;7.940;2023-06-24T06:07:45;6.30;;;4.05;;
76582;SDS011;65462;52.148;7.940;2023-06-24T06:10:10;5.15;;;4.13;;
76582;SDS011;65462;52.148;7.940;2023-06-24T06:12:35;4.85;;;4.00;;
76582;SDS011;65462;52.148;7.940;2023-06-24T06:15:01;5.53;;;4.68;;
76582;SDS011;65462;52.148;7.940;2023-06-24T06:17:26;6.32;;;4.75;;
76582;SDS011;65462;52.148;7.940;2023-06-24T06:19:51;7.28;;;5.72;;
76582;SDS011;65462;52.148;7.940;2023-06-24T06:22:17;7.50;;;5.22;;
76582;SDS011;65462;52.148;7.940;2023-06-24T06:24:43;7.25;;;4.90;;
76582;SDS011;65462;52.148;7.940;2023-06-24T06:27:12;7.28;;;4.97;;
76582;SDS011;65462;52.148;7.940;2023-06-24T06:29:38;7.57;;;5.40;;
76582;SDS011;65462;52.148;7.940;2023-06-24T06:32:03;7.40;;;5.63;;
76582;SDS011;65462;52.148;7.940;2023-06-24T06:34:28;7.57;;;5.57;;
76582;SDS011;65462;52.148;7.940;2023-06-24T06:36:54;8.82;;;5.70;;
76582;SDS011;65462;52.148;7.940;2023-06-24T06:39:19;7.65;;;5.40;;
76582;SDS011;65462;52.148;7.940;2023-06-24T06:41:44;7.07;;;5.50;;
76582;SDS011;65462;52.148;7.940;2023-06-24T06:44:10;9.27;;;6.00;;
76582;SDS011;65462;52.148;7.940;2023-06-24T06:46:35;6.57;;;5.07;;
76582;SDS011;65462;52.148;7.940;2023-06-24T06:49:00;6.85;;;5.32;;
76582;SDS011;65462;52.148;7.940;2023-06-24T06:51:26;7.15;;;5.05;;
76582;SDS011;65462;52.148;7.940;2023-06-24T06:53:51;6.70;;;5.25;;
76582;SDS011;65462;52.148;7.940;2023-06-24T06:56:22;7.57;;;5.88;;
76582;SDS011;65462;52.148;7.940;2023-06-24T06:58:49;6.82;;;5.05;;
76582;SDS011;65462;52.148;7.940;2023-06-24T07:01:14;7.47;;;5.28;;
76582;SDS011;65462;52.148;7.940;2023-06-24T07:03:40;5.80;;;5.00;;
76582;SDS011;65462;52.148;7.940;2023-06-24T07:06:05;6.20;;;4.72;;
76582;SDS011;65462;52.148;7.940;2023-06-24T07:08:30;7.30;;;5.43;;
76582;SDS011;65462;52.148;7.940;2023-06-24T07:10:55;8.10;;;4.70;;
76582;SDS011;65462;52.148;7.940;2023-06-24T07:13:21;5.78;;;5.05;;
76582;SDS011;65462;52.148;7.940;2023-06-24T07:15:46;5.30;;;4.47;;
76582;SDS011;65462;52.148;7.940;2023-06-24T07:18:11;5.75;;;4.85;;
76582;SDS011;65462;52.148;7.940;2023-06-24T07:20:37;6.40;;;5.20;;
76582;SDS011;65462;52.148;7.940;2023-06-24T07:23:02;6.40;;;5.30;;
76582;SDS011;65462;52.148;7.940;2023-06-24T07:25:28;7.32;;;5.20;;
76582;SDS011;65462;52.148;7.940;2023-06-24T07:27:54;6.50;;;5.38;;
76582;SDS011;65462;52.148;7.940;2023-06-24T07:30:20;6.10;;;5.07;;
76582;SDS011;65462;52.148;7.940;2023-06-24T07:32:45;8.07;;;5.18;;
76582;SDS011;65462;52.148;7.940;2023-06-24T07:35:10;7.15;;;4.85;;
76582;SDS011;65462;52.148;7.940;2023-06-24T07:37:36;6.30;;;4.85;;
76582;SDS011;65462;52.148;7.940;2023-06-24T07:40:01;7.22;;;5.05;;
76582;SDS011;65462;52.148;7.940;2023-06-24T07:42:28;7.68;;;5.00;;
76582;SDS011;65462;52.148;7.940;2023-06-24T07:44:53;6.22;;;4.60;;
76582;SDS011;65462;52.148;7.940;2023-06-24T07:47:19;5.45;;;4.68;;
76582;SDS011;65462;52.148;7.940;2023-06-24T07:49:44;5.75;;;4.50;;
76582;SDS011;65462;52.148;7.940;2023-06-24T07:52:09;7.38;;;5.00;;
76582;SDS011;65462;52.148;7.940;2023-06-24T07:54:34;6.43;;;4.82;;
76582;SDS011;65462;52.148;7.940;2023-06-24T07:57:00;5.70;;;4.60;;
76582;SDS011;65462;52.148;7.940;2023-06-24T07:59:26;6.30;;;4.97;;
76582;SDS011;65462;52.148;7.940;2023-06-24T08:01:51;6.70;;;4.80;;
76582;SDS011;65462;52.148;7.940;2023-06-24T08:04:17;5.60;;;4.40;;
76582;SDS011;65462;52.148;7.940;2023-06-24T08:06:42;5.53;;;4.20;;
76582;SDS011;65462;52.148;7.940;2023-06-24T08:09:07;4.88;;;3.92;;
76582;SDS011;65462;52.148;7.940;2023-06-24T08:11:33;6.53;;;4.72;;
76582;SDS011;65462;52.148;7.940;2023-06-24T08:13:58;7.53;;;4.47;;
76582;SDS011;65462;52.148;7.940;2023-06-24T08:16:24;5.90;;;4.18;;
76582;SDS011;65462;52.148;7.940;2023-06-24T08:18:49;4.50;;;4.00;;
76582;SDS011;65462;52.148;7.940;2023-06-24T08:21:14;5.97;;;4.10;;
76582;SDS011;65462;52.148;7.940;2023-06-24T08:23:40;6.30;;;4.18;;
76582;SDS011;65462;52.148;7.940;2023-06-24T08:26:05;5.63;;;4.30;;
76582;SDS011;65462;52.148;7.940;2023-06-24T08:28:32;5.15;;;4.30;;
76582;SDS011;65462;52.148;7.940;2023-06-24T08:30:57;7.50;;;4.45;;
76582;SDS011;65462;52.148;7.940;2023-06-24T08:33:22;7.00;;;4.45;;
76582;SDS011;65462;52.148;7.940;2023-06-24T08:35:48;8.13;;;4.78;;
76582;SDS011;65462;52.148;7.940;2023-06-24T08:38:13;6.80;;;4.30;;
76582;SDS011;65462;52.148;7.940;2023-06-24T08:40:38;7.13;;;4.40;;
76582;SDS011;65462;52.148;7.940;2023-06-24T08:43:08;6.63;;;4.00;;
76582;SDS011;65462;52.148;7.940;2023-06-24T08:45:33;5.72;;;4.05;;
76582;SDS011;65462;52.148;7.940;2023-06-24T08:47:58;7.60;;;4.15;;
76582;SDS011;65462;52.148;7.940;2023-06-24T08:50:27;6.28;;;4.30;;
76582;SDS011;65462;52.148;7.940;2023-06-24T08:52:59;5.10;;;4.53;;
76582;SDS011;65462;52.148;7.940;2023-06-24T08:55:30;5.85;;;4.22;;
76582;SDS011;65462;52.148;7.940;2023-06-24T08:58:00;6.10;;;4.25;;
76582;SDS011;65462;52.148;7.940;2023-06-24T09:00:26;4.75;;;3.42;;
76582;SDS011;65462;52.148;7.940;2023-06-24T09:02:52;4.72;;;3.70;;
76582;SDS011;65462;52.148;7.940;2023-06-24T09:05:17;4.65;;;3.17;;
76582;SDS011;65462;52.148;7.940;2023-06-24T09:07:42;4.32;;;3.55;;
76582;SDS011;65462;52.148;7.940;2023-06-24T09:10:08;4.00;;;3.60;;
76582;SDS011;65462;52.148;7.940;2023-06-24T09:12:34;5.57;;;4.05;;
76582;SDS011;65462;52.148;7.940;2023-06-24T09:14:59;4.00;;;3.47;;
76582;SDS011;65462;52.148;7.940;2023-06-24T09:17:25;4.95;;;3.90;;
76582;SDS011;65462;52.148;7.940;2023-06-24T09:19:50;4.97;;;4.28;;
76582;SDS011;65462;52.148;7.940;2023-06-24T09:22:16;5.35;;;3.97;;
76582;SDS011;65462;52.148;7.940;2023-06-24T09:24:43;6.80;;;3.92;;
76582;SDS011;65462;52.148;7.940;2023-06-24T09:27:14;4.97;;;4.10;;
76582;SDS011;65462;52.148;7.940;2023-06-24T09:29:41;5.10;;;3.97;;
76582;SDS011;65462;52.148;7.940;2023-06-24T09:32:07;4.57;;;3.67;;
76582;SDS011;65462;52.148;7.940;2023-06-24T09:34:33;5.90;;;3.97;;
76582;SDS011;65462;52.148;7.940;2023-06-24T09:36:59;6.20;;;4.03;;
76582;SDS011;65462;52.148;7.940;2023-06-24T09:39:26;6.22;;;4.10;;
76582;SDS011;65462;52.148;7.940;2023-06-24T09:42:01;5.95;;;4.20;;
76582;SDS011;65462;52.148;7.940;2023-06-24T09:44:27;4.63;;;3.47;;
76582;SDS011;65462;52.148;7.940;2023-06-24T09:46:53;4.85;;;3.70;;
76582;SDS011;65462;52.148;7.940;2023-06-24T09:49:21;4.80;;;3.55;;
76582;SDS011;65462;52.148;7.940;2023-06-24T09:51:47;4.18;;;3.53;;
76582;SDS011;65462;52.148;7.940;2023-06-24T09:54:14;6.65;;;3.58;;
76582;SDS011;65462;52.148;7.940;2023-06-24T09:56:43;3.85;;;3.30;;
76582;SDS011;65462;52.148;7.940;2023-06-24T09:59:12;4.95;;;3.75;;
76582;SDS011;65462;52.148;7.940;2023-06-24T10:01:38;5.03;;;3.25;;
76582;SDS011;65462;52.148;7.940;2023-06-24T10:04:07;6.53;;;3.47;;
76582;SDS011;65462;52.148;7.940;2023-06-24T10:06:34;3.95;;;3.55;;
76582;SDS011;65462;52.148;7.940;2023-06-24T10:09:02;5.03;;;3.80;;
76582;SDS011;65462;52.148;7.940;2023-06-24T10:11:27;3.97;;;3.53;;
76582;SDS011;65462;52.148;7.940;2023-06-24T10:13:53;4.93;;;3.58;;
76582;SDS011;65462;52.148;7.940;2023-06-24T10:16:19;4.15;;;3.75;;
76582;SDS011;65462;52.148;7.940;2023-06-24T10:18:45;4.45;;;3.85;;
76582;SDS011;65462;52.148;7.940;2023-06-24T10:21:10;4.07;;;3.67;;
76582;SDS011;65462;52.148;7.940;2023-06-24T10:23:41;6.07;;;3.78;;
76582;SDS011;65462;52.148;7.940;2023-06-24T10:26:07;4.88;;;3.60;;
76582;SDS011;65462;52.148;7.940;2023-06-24T10:39:35;4.60;;;3.90;;
76582;SDS011;65462;52.148;7.940;2023-06-24T10:42:26;6.50;;;4.07;;
76582;SDS011;65462;52.148;7.940;2023-06-24T10:44:52;5.82;;;4.07;;
76582;SDS011;65462;52.148;7.940;2023-06-24T10:50:05;6.28;;;4.20;;
76582;SDS011;65462;52.148;7.940;2023-06-24T10:52:31;5.07;;;3.70;;
76582;SDS011;65462;52.148;7.940;2023-06-24T10:54:57;4.95;;;3.97;;
76582;SDS011;65462;52.148;7.940;2023-06-24T10:57:24;5.10;;;3.83;;
76582;SDS011;65462;52.148;7.940;2023-06-24T10:59:51;6.03;;;4.03;;
76582;SDS011;65462;52.148;7.940;2023-06-24T11:02:19;5.78;;;3.97;;
76582;SDS011;65462;52.148;7.940;2023-06-24T11:04:45;4.72;;;3.67;;
76582;SDS011;65462;52.148;7.940;2023-06-24T11:07:12;6.18;;;4.57;;
76582;SDS011;65462;52.148;7.940;2023-06-24T11:09:38;6.15;;;4.32;;
76582;SDS011;65462;52.148;7.940;2023-06-24T11:12:05;4.78;;;3.67;;
76582;SDS011;65462;52.148;7.940;2023-06-24T11:14:32;4.85;;;3.97;;
76582;SDS011;65462;52.148;7.940;2023-06-24T11:17:03;4.10;;;3.22;;
76582;SDS011;65462;52.148;7.940;2023-06-24T11:19:29;5.03;;;3.85;;
76582;SDS011;65462;52.148;7.940;2023-06-24T11:21:59;4.78;;;3.70;;
76582;SDS011;65462;52.148;7.940;2023-06-24T11:24:27;4.55;;;3.85;;
76582;SDS011;65462;52.148;7.940;2023-06-24T11:26:53;5.50;;;4.03;;
76582;SDS011;65462;52.148;7.940;2023-06-24T11:29:18;5.78;;;4.03;;
76582;SDS011;65462;52.148;7.940;2023-06-24T11:31:47;4.82;;;4.05;;
76582;SDS011;65462;52.148;7.940;2023-06-24T11:34:13;5.13;;;3.88;;
76582;SDS011;65462;52.148;7.940;2023-06-24T11:36:39;6.68;;;3.67;;
76582;SDS011;65462;52.148;7.940;2023-06-24T11:39:04;4.38;;;3.83;;
76582;SDS011;65462;52.148;7.940;2023-06-24T11:41:29;4.60;;;3.88;;
76582;SDS011;65462;52.148;7.940;2023-06-24T11:43:57;6.35;;;3.97;;
76582;SDS011;65462;52.148;7.940;2023-06-24T11:48:52;4.00;;;3.30;;
76582;SDS011;65462;52.148;7.940;2023-06-24T11:51:18;4.22;;;3.45;;
76582;SDS011;65462;52.148;7.940;2023-06-24T11:53:43;4.05;;;3.65;;
76582;SDS011;65462;52.148;7.940;2023-06-24T11:56:10;4.68;;;3.25;;
76582;SDS011;65462;52.148;7.940;2023-06-24T11:58:36;4.75;;;3.75;;
76582;SDS011;65462;52.148;7.940;2023-06-24T12:01:01;5.15;;;2.97;;
76582;SDS011;65462;52.148;7.940;2023-06-24T12:03:30;5.32;;;3.95;;
76582;SDS011;65462;52.148;7.940;2023-06-24T12:05:57;5.20;;;3.58;;
76582;SDS011;65462;52.148;7.940;2023-06-24T12:08:23;5.63;;;3.80;;
76582;SDS011;65462;52.148;7.940;2023-06-24T12:10:48;6.18;;;3.95;;
76582;SDS011;65462;52.148;7.940;2023-06-24T12:13:13;4.15;;;3.65;;
76582;SDS011;65462;52.148;7.940;2023-06-24T12:15:39;6.50;;;3.83;;
76582;SDS011;65462;52.148;7.940;2023-06-24T12:18:05;5.38;;;3.60;;
76582;SDS011;65462;52.148;7.940;2023-06-24T12:20:30;4.80;;;4.03;;
76582;SDS011;65462;52.148;7.940;2023-06-24T12:22:56;4.72;;;4.07;;
76582;SDS011;65462;52.148;7.940;2023-06-24T12:25:22;4.50;;;3.70;;
76582;SDS011;65462;52.148;7.940;2023-06-24T12:27:47;5.45;;;3.70;;
76582;SDS011;65462;52.148;7.940;2023-06-24T12:30:13;5.18;;;4.15;;
76582;SDS011;65462;52.148;7.940;2023-06-24T12:32:39;5.47;;;4.40;;
76582;SDS011;65462;52.148;7.940;2023-06-24T12:35:05;5.72;;;3.85;;
76582;SDS011;65462;52.148;7.940;2023-06-24T12:37:31;5.57;;;4.50;;
76582;SDS011;65462;52.148;7.940;2023-06-24T12:39:57;5.88;;;4.50;;
76582;SDS011;65462;52.148;7.940;2023-06-24T12:42:23;4.50;;;4.05;;
76582;SDS011;65462;52.148;7.940;2023-06-24T12:44:48;5.07;;;4.15;;
76582;SDS011;65462;52.148;7.940;2023-06-24T12:47:14;6.50;;;3.92;;
76582;SDS011;65462;52.148;7.940;2023-06-24T12:49:39;5.63;;;4.25;;
76582;SDS011;65462;52.148;7.940;2023-06-24T12:52:04;4.85;;;4.25;;
76582;SDS011;65462;52.148;7.940;2023-06-24T12:54:29;5.18;;;4.50;;
76582;SDS011;65462;52.148;7.940;2023-06-24T12:56:55;5.10;;;4.60;;
76582;SDS011;65462;52.148;7.940;2023-06-24T12:59:20;5.65;;;4.20;;
76582;SDS011;65462;52.148;7.940;2023-06-24T13:01:45;5.07;;;3.97;;
76582;SDS011;65462;52.148;7.940;2023-06-24T13:04:11;7.30;;;5.03;;
76582;SDS011;65462;52.148;7.940;2023-06-24T13:06:36;5.72;;;4.10;;
76582;SDS011;65462;52.148;7.940;2023-06-24T13:09:02;5.55;;;4.20;;
76582;SDS011;65462;52.148;7.940;2023-06-24T13:11:27;5.75;;;4.35;;
76582;SDS011;65462;52.148;7.940;2023-06-24T13:13:53;5.15;;;4.15;;
76582;SDS011;65462;52.148;7.940;2023-06-24T13:16:18;4.55;;;4.15;;
76582;SDS011;65462;52.148;7.940;2023-06-24T13:18:43;5.70;;;3.88;;
76582;SDS011;65462;52.148;7.940;2023-06-24T13:21:09;5.68;;;4.32;;
76582;SDS011;65462;52.148;7.940;2023-06-24T13:23:35;4.80;;;4.07;;
76582;SDS011;65462;52.148;7.940;2023-06-24T13:26:02;4.78;;;4.28;;
76582;SDS011;65462;52.148;7.940;2023-06-24T13:28:27;5.05;;;4.45;;
76582;SDS011;65462;52.148;7.940;2023-06-24T13:30:53;5.32;;;4.65;;
76582;SDS011;65462;52.148;7.940;2023-06-24T13:33:19;4.90;;;4.07;;
76582;SDS011;65462;52.148;7.940;2023-06-24T13:35:46;4.90;;;4.10;;
76582;SDS011;65462;52.148;7.940;2023-06-24T13:38:11;4.65;;;3.97;;
76582;SDS011;65462;52.148;7.940;2023-06-24T13:40:37;4.53;;;3.63;;
76582;SDS011;65462;52.148;7.940;2023-06-24T13:43:02;4.97;;;3.88;;
76582;SDS011;65462;52.148;7.940;2023-06-24T13:45:28;3.92;;;3.28;;
76582;SDS011;65462;52.148;7.940;2023-06-24T13:47:53;6.72;;;3.60;;
76582;SDS011;65462;52.148;7.940;2023-06-24T13:50:20;5.10;;;3.10;;
76582;SDS011;65462;52.148;7.940;2023-06-24T13:52:45;4.93;;;3.20;;
76582;SDS011;65462;52.148;7.940;2023-06-24T13:55:10;5.60;;;3.50;;
76582;SDS011;65462;52.148;7.940;2023-06-24T13:57:36;3.55;;;2.97;;
76582;SDS011;65462;52.148;7.940;2023-06-24T14:00:01;4.72;;;3.20;;
76582;SDS011;65462;52.148;7.940;2023-06-24T14:02:26;4.05;;;3.03;;
76582;SDS011;65462;52.148;7.940;2023-06-24T14:04:52;4.22;;;3.20;;
76582;SDS011;65462;52.148;7.940;2023-06-24T14:07:17;4.10;;;3.00;;
76582;SDS011;65462;52.148;7.940;2023-06-24T14:09:42;4.25;;;2.95;;
76582;SDS011;65462;52.148;7.940;2023-06-24T14:12:08;3.72;;;2.90;;
76582;SDS011;65462;52.148;7.940;2023-06-24T14:14:34;4.00;;;2.83;;
76582;SDS011;65462;52.148;7.940;2023-06-24T14:17:00;4.30;;;2.70;;
76582;SDS011;65462;52.148;7.940;2023-06-24T14:19:25;4.32;;;3.03;;
76582;SDS011;65462;52.148;7.940;2023-06-24T14:21:51;3.72;;;3.03;;
76582;SDS011;65462;52.148;7.940;2023-06-24T14:24:17;3.40;;;2.67;;
76582;SDS011;65462;52.148;7.940;2023-06-24T14:26:43;3.25;;;2.78;;
76582;SDS011;65462;52.148;7.940;2023-06-24T14:29:09;3.50;;;2.80;;
76582;SDS011;65462;52.148;7.940;2023-06-24T14:31:34;3.67;;;2.55;;
76582;SDS011;65462;52.148;7.940;2023-06-24T14:33:59;3.42;;;2.75;;
76582;SDS011;65462;52.148;7.940;2023-06-24T14:36:25;3.13;;;2.42;;
76582;SDS011;65462;52.148;7.940;2023-06-24T14:38:50;3.13;;;2.50;;
76582;SDS011;65462;52.148;7.940;2023-06-24T14:41:15;3.58;;;2.70;;
76582;SDS011;65462;52.148;7.940;2023-06-24T14:43:41;2.80;;;2.47;;
76582;SDS011;65462;52.148;7.940;2023-06-24T14:46:06;3.35;;;2.88;;
76582;SDS011;65462;52.148;7.940;2023-06-24T14:48:31;3.22;;;2.58;;
76582;SDS011;65462;52.148;7.940;2023-06-24T14:50:57;3.40;;;2.70;;
76582;SDS011;65462;52.148;7.940;2023-06-24T14:53:22;3.33;;;2.50;;
76582;SDS011;65462;52.148;7.940;2023-06-24T14:55:47;3.63;;;2.70;;
76582;SDS011;65462;52.148;7.940;2023-06-24T14:58:12;3.83;;;2.55;;
76582;SDS011;65462;52.148;7.940;2023-06-24T15:00:38;3.33;;;2.75;;
76582;SDS011;65462;52.148;7.940;2023-06-24T15:03:03;3.40;;;2.60;;